sensor_id;sensor_type;location;lat;lon;timestamp;P1;durP1;ratioP1;P2;durP2;ratioP2
34072;SDS011;20346;52.702;16.886;2024-01-30T00:07:51;37.40;;;19.10;;
34072;SDS011;20346;52.702;16.886;2024-01-30T00:10:37;52.40;;;23.60;;
34072;SDS011;20346;52.702;16.886;2024-01-30T00:13:23;51.40;;;24.60;;
34072;SDS011;20346;52.702;16.886;2024-01-30T00:16:19;47.60;;;23.10;;
34072;SDS011;20346;52.702;16.886;2024-01-30T00:19:12;46.60;;;23.50;;
34072;SDS011;20346;52.702;16.886;2024-01-30T00:21:58;43.30;;;22.00;;
34072;SDS011;20346;52.702;16.886;2024-01-30T00:24:44;46.80;;;22.70;;
34072;SDS011;20346;52.702;16.886;2024-01-30T00:27:30;50.60;;;21.80;;
34072;SDS011;20346;52.702;16.886;2024-01-30T00:30:16;45.70;;;21.60;;
34072;SDS011;20346;52.702;16.886;2024-01-30T00:33:02;45.70;;;22.40;;
34072;SDS011;20346;52.702;16.886;2024-01-30T00:44:06;47.50;;;21.60;;
34072;SDS011;20346;52.702;16.886;2024-01-30T00:46:51;49.60;;;21.20;;
34072;SDS011;20346;52.702;16.886;2024-01-30T00:52:24;58.50;;;24.50;;
34072;SDS011;20346;52.702;16.886;2024-01-30T00:57:57;48.40;;;23.20;;
34072;SDS011;20346;52.702;16.886;2024-01-30T01:03:29;57.00;;;27.30;;
34072;SDS011;20346;52.702;16.886;2024-01-30T01:09:02;61.20;;;27.40;;
34072;SDS011;20346;52.702;16.886;2024-01-30T01:11:49;60.20;;;28.30;;
34072;SDS011;20346;52.702;16.886;2024-01-30T01:17:22;54.20;;;26.70;;
34072;SDS011;20346;52.702;16.886;2024-01-30T01:22:56;49.90;;;24.60;;
34072;SDS011;20346;52.702;16.886;2024-01-30T01:28:30;50.30;;;22.90;;
34072;SDS011;20346;52.702;16.886;2024-01-30T01:31:16;51.40;;;23.70;;
34072;SDS011;20346;52.702;16.886;2024-01-30T01:34:03;47.20;;;23.00;;
34072;SDS011;20346;52.702;16.886;2024-01-30T01:36:49;41.20;;;22.60;;
34072;SDS011;20346;52.702;16.886;2024-01-30T01:39:35;42.20;;;20.30;;
34072;SDS011;20346;52.702;16.886;2024-01-30T01:42:21;44.40;;;22.40;;
34072;SDS011;20346;52.702;16.886;2024-01-30T01:45:08;46.60;;;22.10;;
34072;SDS011;20346;52.702;16.886;2024-01-30T01:50:40;43.90;;;19.80;;
34072;SDS011;20346;52.702;16.886;2024-01-30T01:53:28;45.80;;;20.30;;
34072;SDS011;20346;52.702;16.886;2024-01-30T01:59:04;40.40;;;19.20;;
34072;SDS011;20346;52.702;16.886;2024-01-30T02:01:51;41.60;;;19.90;;
34072;SDS011;20346;52.702;16.886;2024-01-30T02:04:39;38.00;;;19.70;;
34072;SDS011;20346;52.702;16.886;2024-01-30T02:07:25;43.90;;;20.00;;
34072;SDS011;20346;52.702;16.886;2024-01-30T02:10:11;38.10;;;18.80;;
34072;SDS011;20346;52.702;16.886;2024-01-30T02:12:58;43.00;;;20.40;;
34072;SDS011;20346;52.702;16.886;2024-01-30T02:15:48;35.40;;;19.30;;
34072;SDS011;20346;52.702;16.886;2024-01-30T02:18:35;46.00;;;20.50;;
34072;SDS011;20346;52.702;16.886;2024-01-30T02:21:27;42.10;;;20.40;;
34072;SDS011;20346;52.702;16.886;2024-01-30T02:26:59;37.10;;;19.00;;
34072;SDS011;20346;52.702;16.886;2024-01-30T02:29:45;39.10;;;18.80;;
34072;SDS011;20346;52.702;16.886;2024-01-30T02:32:31;38.90;;;19.50;;
34072;SDS011;20346;52.702;16.886;2024-01-30T02:35:17;43.80;;;19.90;;
34072;SDS011;20346;52.702;16.886;2024-01-30T02:38:03;40.60;;;19.10;;
34072;SDS011;20346;52.702;16.886;2024-01-30T02:40:50;41.00;;;19.20;;
34072;SDS011;20346;52.702;16.886;2024-01-30T02:43:36;40.60;;;18.30;;
34072;SDS011;20346;52.702;16.886;2024-01-30T02:46:21;38.20;;;18.30;;
34072;SDS011;20346;52.702;16.886;2024-01-30T02:49:07;48.20;;;19.10;;
34072;SDS011;20346;52.702;16.886;2024-01-30T02:54:41;39.70;;;17.70;;
34072;SDS011;20346;52.702;16.886;2024-01-30T03:00:13;36.10;;;17.30;;
34072;SDS011;20346;52.702;16.886;2024-01-30T03:03:00;34.80;;;16.50;;
34072;SDS011;20346;52.702;16.886;2024-01-30T03:05:46;35.70;;;16.90;;
34072;SDS011;20346;52.702;16.886;2024-01-30T03:08:32;40.30;;;18.20;;
34072;SDS011;20346;52.702;16.886;2024-01-30T03:11:20;37.40;;;18.20;;
34072;SDS011;20346;52.702;16.886;2024-01-30T03:14:06;36.10;;;17.00;;
34072;SDS011;20346;52.702;16.886;2024-01-30T03:16:52;35.80;;;16.60;;
34072;SDS011;20346;52.702;16.886;2024-01-30T03:19:38;31.70;;;17.70;;
34072;SDS011;20346;52.702;16.886;2024-01-30T03:22:24;35.60;;;18.20;;
34072;SDS011;20346;52.702;16.886;2024-01-30T03:25:10;50.40;;;17.70;;
34072;SDS011;20346;52.702;16.886;2024-01-30T03:27:56;35.30;;;17.80;;
34072;SDS011;20346;52.702;16.886;2024-01-30T03:30:42;34.80;;;16.50;;
34072;SDS011;20346;52.702;16.886;2024-01-30T03:33:27;38.20;;;17.10;;
34072;SDS011;20346;52.702;16.886;2024-01-30T03:36:15;37.50;;;17.10;;
34072;SDS011;20346;52.702;16.886;2024-01-30T03:39:01;29.10;;;16.20;;
34072;SDS011;20346;52.702;16.886;2024-01-30T03:50:05;34.70;;;16.20;;
34072;SDS011;20346;52.702;16.886;2024-01-30T03:52:52;38.00;;;17.50;;
34072;SDS011;20346;52.702;16.886;2024-01-30T03:55:37;35.40;;;16.00;;
34072;SDS011;20346;52.702;16.886;2024-01-30T03:58:23;33.80;;;16.90;;
34072;SDS011;20346;52.702;16.886;2024-01-30T04:01:13;37.90;;;17.90;;
34072;SDS011;20346;52.702;16.886;2024-01-30T04:04:00;29.80;;;16.50;;
34072;SDS011;20346;52.702;16.886;2024-01-30T04:06:46;38.30;;;17.30;;
34072;SDS011;20346;52.702;16.886;2024-01-30T04:12:18;34.50;;;17.20;;
34072;SDS011;20346;52.702;16.886;2024-01-30T04:15:04;34.60;;;17.20;;
34072;SDS011;20346;52.702;16.886;2024-01-30T04:20:36;32.30;;;15.70;;
34072;SDS011;20346;52.702;16.886;2024-01-30T04:23:22;35.10;;;16.00;;
34072;SDS011;20346;52.702;16.886;2024-01-30T04:26:08;31.50;;;15.30;;
34072;SDS011;20346;52.702;16.886;2024-01-30T04:28:54;35.50;;;17.30;;
34072;SDS011;20346;52.702;16.886;2024-01-30T04:34:27;30.80;;;15.30;;
34072;SDS011;20346;52.702;16.886;2024-01-30T04:37:13;29.30;;;15.20;;
34072;SDS011;20346;52.702;16.886;2024-01-30T04:42:45;30.80;;;16.10;;
34072;SDS011;20346;52.702;16.886;2024-01-30T04:45:31;38.50;;;16.70;;
34072;SDS011;20346;52.702;16.886;2024-01-30T04:48:18;30.90;;;14.90;;
34072;SDS011;20346;52.702;16.886;2024-01-30T04:53:50;32.20;;;15.10;;
34072;SDS011;20346;52.702;16.886;2024-01-30T04:59:23;26.30;;;14.60;;
34072;SDS011;20346;52.702;16.886;2024-01-30T05:02:09;31.80;;;16.00;;
34072;SDS011;20346;52.702;16.886;2024-01-30T05:04:55;28.90;;;15.60;;
34072;SDS011;20346;52.702;16.886;2024-01-30T05:07:42;32.20;;;15.90;;
34072;SDS011;20346;52.702;16.886;2024-01-30T05:10:28;30.10;;;15.80;;
34072;SDS011;20346;52.702;16.886;2024-01-30T05:13:15;28.50;;;16.20;;
34072;SDS011;20346;52.702;16.886;2024-01-30T05:16:02;29.70;;;15.80;;
34072;SDS011;20346;52.702;16.886;2024-01-30T05:18:49;37.00;;;16.30;;
34072;SDS011;20346;52.702;16.886;2024-01-30T05:21:35;30.70;;;15.20;;
34072;SDS011;20346;52.702;16.886;2024-01-30T05:24:21;27.10;;;15.10;;
34072;SDS011;20346;52.702;16.886;2024-01-30T05:27:07;27.00;;;13.90;;
34072;SDS011;20346;52.702;16.886;2024-01-30T05:29:54;33.30;;;14.90;;
34072;SDS011;20346;52.702;16.886;2024-01-30T05:35:26;31.00;;;14.90;;
34072;SDS011;20346;52.702;16.886;2024-01-30T05:38:12;28.70;;;13.50;;
34072;SDS011;20346;52.702;16.886;2024-01-30T05:40:59;31.00;;;15.90;;
34072;SDS011;20346;52.702;16.886;2024-01-30T05:43:45;29.20;;;15.20;;
34072;SDS011;20346;52.702;16.886;2024-01-30T05:49:19;30.70;;;14.50;;
34072;SDS011;20346;52.702;16.886;2024-01-30T05:52:06;29.60;;;15.50;;
34072;SDS011;20346;52.702;16.886;2024-01-30T05:54:52;31.20;;;14.80;;
34072;SDS011;20346;52.702;16.886;2024-01-30T05:57:38;28.50;;;15.20;;
34072;SDS011;20346;52.702;16.886;2024-01-30T06:00:24;27.80;;;14.60;;
34072;SDS011;20346;52.702;16.886;2024-01-30T06:05:57;24.60;;;12.90;;
34072;SDS011;20346;52.702;16.886;2024-01-30T06:08:43;28.90;;;15.10;;
34072;SDS011;20346;52.702;16.886;2024-01-30T06:11:30;36.40;;;16.30;;
34072;SDS011;20346;52.702;16.886;2024-01-30T06:14:16;31.10;;;15.10;;
34072;SDS011;20346;52.702;16.886;2024-01-30T06:19:49;28.50;;;14.80;;
34072;SDS011;20346;52.702;16.886;2024-01-30T06:22:35;25.60;;;14.40;;
34072;SDS011;20346;52.702;16.886;2024-01-30T06:28:08;30.70;;;15.20;;
34072;SDS011;20346;52.702;16.886;2024-01-30T06:33:40;31.60;;;15.90;;
34072;SDS011;20346;52.702;16.886;2024-01-30T06:36:28;33.50;;;15.20;;
34072;SDS011;20346;52.702;16.886;2024-01-30T06:39:14;30.10;;;15.40;;
34072;SDS011;20346;52.702;16.886;2024-01-30T06:42:00;30.00;;;15.90;;
34072;SDS011;20346;52.702;16.886;2024-01-30T06:44:47;32.70;;;16.00;;
34072;SDS011;20346;52.702;16.886;2024-01-30T06:47:33;28.00;;;15.60;;
34072;SDS011;20346;52.702;16.886;2024-01-30T06:50:19;33.40;;;15.10;;
34072;SDS011;20346;52.702;16.886;2024-01-30T06:53:06;30.00;;;16.30;;
34072;SDS011;20346;52.702;16.886;2024-01-30T06:55:52;37.70;;;16.50;;
34072;SDS011;20346;52.702;16.886;2024-01-30T06:58:38;32.60;;;16.80;;
34072;SDS011;20346;52.702;16.886;2024-01-30T07:04:15;31.80;;;16.80;;
34072;SDS011;20346;52.702;16.886;2024-01-30T07:07:02;38.40;;;17.80;;
34072;SDS011;20346;52.702;16.886;2024-01-30T07:12:38;35.00;;;18.90;;
34072;SDS011;20346;52.702;16.886;2024-01-30T07:15:24;33.90;;;17.60;;
34072;SDS011;20346;52.702;16.886;2024-01-30T07:18:11;38.20;;;18.70;;
34072;SDS011;20346;52.702;16.886;2024-01-30T07:20:59;33.90;;;18.50;;
34072;SDS011;20346;52.702;16.886;2024-01-30T07:23:45;36.10;;;16.90;;
34072;SDS011;20346;52.702;16.886;2024-01-30T07:26:36;31.00;;;16.70;;
34072;SDS011;20346;52.702;16.886;2024-01-30T07:29:23;32.40;;;16.00;;
34072;SDS011;20346;52.702;16.886;2024-01-30T07:32:09;27.00;;;15.20;;
34072;SDS011;20346;52.702;16.886;2024-01-30T07:34:55;27.60;;;15.80;;
34072;SDS011;20346;52.702;16.886;2024-01-30T07:37:41;28.20;;;15.70;;
34072;SDS011;20346;52.702;16.886;2024-01-30T07:40:27;28.90;;;15.70;;
34072;SDS011;20346;52.702;16.886;2024-01-30T07:43:14;27.70;;;15.20;;
34072;SDS011;20346;52.702;16.886;2024-01-30T07:46:00;32.80;;;15.80;;
34072;SDS011;20346;52.702;16.886;2024-01-30T07:48:47;23.10;;;13.30;;
34072;SDS011;20346;52.702;16.886;2024-01-30T07:51:34;34.70;;;16.20;;
34072;SDS011;20346;52.702;16.886;2024-01-30T07:54:20;26.70;;;14.30;;
34072;SDS011;20346;52.702;16.886;2024-01-30T07:57:06;28.10;;;15.50;;
34072;SDS011;20346;52.702;16.886;2024-01-30T08:02:39;28.20;;;16.20;;
34072;SDS011;20346;52.702;16.886;2024-01-30T08:05:25;27.80;;;15.80;;
34072;SDS011;20346;52.702;16.886;2024-01-30T08:08:11;26.30;;;14.50;;
34072;SDS011;20346;52.702;16.886;2024-01-30T08:10:58;29.00;;;16.00;;
34072;SDS011;20346;52.702;16.886;2024-01-30T08:13:44;25.60;;;14.50;;
34072;SDS011;20346;52.702;16.886;2024-01-30T08:16:30;27.70;;;15.10;;
34072;SDS011;20346;52.702;16.886;2024-01-30T08:19:16;28.80;;;13.70;;
34072;SDS011;20346;52.702;16.886;2024-01-30T08:22:03;25.50;;;13.70;;
34072;SDS011;20346;52.702;16.886;2024-01-30T08:27:35;27.80;;;14.60;;
34072;SDS011;20346;52.702;16.886;2024-01-30T08:30:24;27.10;;;13.90;;
34072;SDS011;20346;52.702;16.886;2024-01-30T08:33:10;27.70;;;13.80;;
34072;SDS011;20346;52.702;16.886;2024-01-30T08:35:56;24.20;;;14.10;;
34072;SDS011;20346;52.702;16.886;2024-01-30T08:38:43;28.50;;;14.80;;
34072;SDS011;20346;52.702;16.886;2024-01-30T08:41:29;24.80;;;14.20;;
34072;SDS011;20346;52.702;16.886;2024-01-30T08:44:15;25.40;;;13.50;;
34072;SDS011;20346;52.702;16.886;2024-01-30T08:47:01;18.80;;;12.50;;
34072;SDS011;20346;52.702;16.886;2024-01-30T08:49:48;23.50;;;13.10;;
34072;SDS011;20346;52.702;16.886;2024-01-30T08:52:35;29.40;;;13.90;;
34072;SDS011;20346;52.702;16.886;2024-01-30T08:58:07;32.20;;;14.90;;
34072;SDS011;20346;52.702;16.886;2024-01-30T09:00:54;24.00;;;13.90;;
34072;SDS011;20346;52.702;16.886;2024-01-30T09:03:40;28.30;;;14.80;;
34072;SDS011;20346;52.702;16.886;2024-01-30T09:06:29;25.80;;;14.80;;
34072;SDS011;20346;52.702;16.886;2024-01-30T09:09:15;24.50;;;14.10;;
34072;SDS011;20346;52.702;16.886;2024-01-30T09:12:02;22.70;;;14.50;;
34072;SDS011;20346;52.702;16.886;2024-01-30T09:14:53;25.50;;;15.00;;
34072;SDS011;20346;52.702;16.886;2024-01-30T09:17:40;28.10;;;15.40;;
34072;SDS011;20346;52.702;16.886;2024-01-30T09:20:27;26.60;;;14.50;;
34072;SDS011;20346;52.702;16.886;2024-01-30T09:23:13;30.20;;;16.00;;
34072;SDS011;20346;52.702;16.886;2024-01-30T09:25:59;33.40;;;17.50;;
34072;SDS011;20346;52.702;16.886;2024-01-30T09:28:45;30.20;;;17.50;;
34072;SDS011;20346;52.702;16.886;2024-01-30T09:31:31;26.90;;;16.70;;
34072;SDS011;20346;52.702;16.886;2024-01-30T09:34:17;31.70;;;16.50;;
34072;SDS011;20346;52.702;16.886;2024-01-30T09:37:03;27.80;;;15.30;;
34072;SDS011;20346;52.702;16.886;2024-01-30T09:39:49;24.90;;;15.60;;
34072;SDS011;20346;52.702;16.886;2024-01-30T09:42:35;29.30;;;15.30;;
34072;SDS011;20346;52.702;16.886;2024-01-30T09:48:09;27.50;;;15.50;;
34072;SDS011;20346;52.702;16.886;2024-01-30T09:50:56;26.20;;;15.00;;
34072;SDS011;20346;52.702;16.886;2024-01-30T09:53:43;25.80;;;14.60;;
34072;SDS011;20346;52.702;16.886;2024-01-30T09:56:30;25.20;;;14.80;;
34072;SDS011;20346;52.702;16.886;2024-01-30T09:59:16;30.30;;;16.80;;
34072;SDS011;20346;52.702;16.886;2024-01-30T10:02:02;27.60;;;15.40;;
34072;SDS011;20346;52.702;16.886;2024-01-30T10:04:50;28.80;;;15.20;;
34072;SDS011;20346;52.702;16.886;2024-01-30T10:07:37;27.90;;;14.80;;
34072;SDS011;20346;52.702;16.886;2024-01-30T10:10:23;24.60;;;14.40;;
34072;SDS011;20346;52.702;16.886;2024-01-30T10:13:09;25.60;;;14.40;;
34072;SDS011;20346;52.702;16.886;2024-01-30T10:15:56;24.50;;;13.70;;
34072;SDS011;20346;52.702;16.886;2024-01-30T10:18:43;24.80;;;14.50;;
34072;SDS011;20346;52.702;16.886;2024-01-30T10:21:29;23.90;;;14.30;;
34072;SDS011;20346;52.702;16.886;2024-01-30T10:24:15;24.60;;;14.60;;
34072;SDS011;20346;52.702;16.886;2024-01-30T10:27:03;23.20;;;15.00;;
34072;SDS011;20346;52.702;16.886;2024-01-30T10:29:51;24.30;;;15.50;;
34072;SDS011;20346;52.702;16.886;2024-01-30T10:32:37;21.30;;;13.50;;
34072;SDS011;20346;52.702;16.886;2024-01-30T10:35:23;26.80;;;15.00;;
34072;SDS011;20346;52.702;16.886;2024-01-30T10:38:09;26.20;;;15.50;;
34072;SDS011;20346;52.702;16.886;2024-01-30T10:41:01;25.60;;;15.30;;
34072;SDS011;20346;52.702;16.886;2024-01-30T10:43:50;24.20;;;14.40;;
34072;SDS011;20346;52.702;16.886;2024-01-30T10:46:50;24.70;;;13.70;;
34072;SDS011;20346;52.702;16.886;2024-01-30T10:49:46;24.10;;;13.60;;
34072;SDS011;20346;52.702;16.886;2024-01-30T10:52:32;20.60;;;13.30;;
34072;SDS011;20346;52.702;16.886;2024-01-30T10:55:18;23.10;;;13.90;;
34072;SDS011;20346;52.702;16.886;2024-01-30T10:58:07;21.40;;;13.30;;
34072;SDS011;20346;52.702;16.886;2024-01-30T11:00:54;21.80;;;13.80;;
34072;SDS011;20346;52.702;16.886;2024-01-30T11:03:41;23.40;;;14.20;;
34072;SDS011;20346;52.702;16.886;2024-01-30T11:06:28;23.10;;;13.70;;
34072;SDS011;20346;52.702;16.886;2024-01-30T11:09:16;22.70;;;13.80;;
34072;SDS011;20346;52.702;16.886;2024-01-30T11:12:03;22.90;;;13.10;;
34072;SDS011;20346;52.702;16.886;2024-01-30T11:17:50;23.30;;;13.00;;
34072;SDS011;20346;52.702;16.886;2024-01-30T11:20:39;21.90;;;12.50;;
34072;SDS011;20346;52.702;16.886;2024-01-30T11:23:33;25.30;;;13.30;;
34072;SDS011;20346;52.702;16.886;2024-01-30T11:26:23;21.90;;;13.30;;
34072;SDS011;20346;52.702;16.886;2024-01-30T11:29:14;22.80;;;13.30;;
34072;SDS011;20346;52.702;16.886;2024-01-30T11:32:01;25.70;;;14.70;;
34072;SDS011;20346;52.702;16.886;2024-01-30T11:34:48;18.50;;;13.70;;
34072;SDS011;20346;52.702;16.886;2024-01-30T11:37:36;25.20;;;13.90;;
34072;SDS011;20346;52.702;16.886;2024-01-30T11:40:25;28.10;;;16.10;;
34072;SDS011;20346;52.702;16.886;2024-01-30T11:43:15;24.60;;;14.60;;
34072;SDS011;20346;52.702;16.886;2024-01-30T11:46:02;24.60;;;14.30;;
34072;SDS011;20346;52.702;16.886;2024-01-30T11:48:48;21.60;;;13.50;;
34072;SDS011;20346;52.702;16.886;2024-01-30T11:51:35;22.80;;;13.70;;
34072;SDS011;20346;52.702;16.886;2024-01-30T11:54:21;21.50;;;13.60;;
34072;SDS011;20346;52.702;16.886;2024-01-30T11:57:07;20.10;;;12.90;;
34072;SDS011;20346;52.702;16.886;2024-01-30T11:59:53;23.30;;;14.80;;
34072;SDS011;20346;52.702;16.886;2024-01-30T12:02:39;24.20;;;14.40;;
34072;SDS011;20346;52.702;16.886;2024-01-30T12:08:14;23.20;;;14.10;;
34072;SDS011;20346;52.702;16.886;2024-01-30T12:11:02;25.00;;;13.30;;
34072;SDS011;20346;52.702;16.886;2024-01-30T12:13:51;23.00;;;13.80;;
34072;SDS011;20346;52.702;16.886;2024-01-30T12:16:38;22.50;;;14.00;;
34072;SDS011;20346;52.702;16.886;2024-01-30T12:19:24;26.40;;;14.50;;
34072;SDS011;20346;52.702;16.886;2024-01-30T12:22:11;20.30;;;13.50;;
34072;SDS011;20346;52.702;16.886;2024-01-30T12:24:57;21.20;;;14.50;;
34072;SDS011;20346;52.702;16.886;2024-01-30T12:27:43;24.40;;;15.00;;
34072;SDS011;20346;52.702;16.886;2024-01-30T12:30:31;21.80;;;14.00;;
34072;SDS011;20346;52.702;16.886;2024-01-30T12:33:17;27.10;;;15.50;;
34072;SDS011;20346;52.702;16.886;2024-01-30T12:36:04;23.40;;;14.50;;
34072;SDS011;20346;52.702;16.886;2024-01-30T12:38:50;22.50;;;14.60;;
34072;SDS011;20346;52.702;16.886;2024-01-30T12:41:36;24.80;;;14.20;;
34072;SDS011;20346;52.702;16.886;2024-01-30T12:44:22;28.50;;;13.90;;
34072;SDS011;20346;52.702;16.886;2024-01-30T12:47:08;25.30;;;15.20;;
34072;SDS011;20346;52.702;16.886;2024-01-30T12:49:55;21.10;;;14.20;;
34072;SDS011;20346;52.702;16.886;2024-01-30T12:52:42;30.50;;;15.00;;
34072;SDS011;20346;52.702;16.886;2024-01-30T12:55:29;21.30;;;14.00;;
34072;SDS011;20346;52.702;16.886;2024-01-30T12:58:16;22.10;;;14.80;;
34072;SDS011;20346;52.702;16.886;2024-01-30T13:01:02;24.30;;;13.60;;
34072;SDS011;20346;52.702;16.886;2024-01-30T13:03:48;21.50;;;14.00;;
34072;SDS011;20346;52.702;16.886;2024-01-30T13:06:34;23.40;;;13.90;;
34072;SDS011;20346;52.702;16.886;2024-01-30T13:09:20;23.80;;;14.70;;
34072;SDS011;20346;52.702;16.886;2024-01-30T13:12:07;22.30;;;15.00;;
34072;SDS011;20346;52.702;16.886;2024-01-30T13:14:53;23.00;;;14.10;;
34072;SDS011;20346;52.702;16.886;2024-01-30T13:17:39;22.20;;;13.90;;
34072;SDS011;20346;52.702;16.886;2024-01-30T13:20:25;22.60;;;13.30;;
34072;SDS011;20346;52.702;16.886;2024-01-30T13:23:11;27.60;;;15.20;;
34072;SDS011;20346;52.702;16.886;2024-01-30T13:25:57;23.10;;;13.90;;
34072;SDS011;20346;52.702;16.886;2024-01-30T13:31:30;16.80;;;12.20;;
34072;SDS011;20346;52.702;16.886;2024-01-30T13:34:16;21.60;;;13.60;;
34072;SDS011;20346;52.702;16.886;2024-01-30T13:37:02;23.60;;;14.40;;
34072;SDS011;20346;52.702;16.886;2024-01-30T13:39:48;20.90;;;13.70;;
34072;SDS011;20346;52.702;16.886;2024-01-30T13:42:34;21.10;;;13.90;;
34072;SDS011;20346;52.702;16.886;2024-01-30T13:45:20;28.00;;;14.40;;
34072;SDS011;20346;52.702;16.886;2024-01-30T13:48:06;26.70;;;14.80;;
34072;SDS011;20346;52.702;16.886;2024-01-30T13:50:53;23.70;;;14.40;;
34072;SDS011;20346;52.702;16.886;2024-01-30T13:53:39;25.00;;;15.00;;
34072;SDS011;20346;52.702;16.886;2024-01-30T13:56:25;23.60;;;14.30;;
34072;SDS011;20346;52.702;16.886;2024-01-30T13:59:12;19.80;;;13.20;;
34072;SDS011;20346;52.702;16.886;2024-01-30T14:01:58;27.10;;;14.60;;
34072;SDS011;20346;52.702;16.886;2024-01-30T14:04:44;23.50;;;14.30;;
34072;SDS011;20346;52.702;16.886;2024-01-30T14:07:30;24.50;;;14.60;;
34072;SDS011;20346;52.702;16.886;2024-01-30T14:10:16;25.50;;;14.50;;
34072;SDS011;20346;52.702;16.886;2024-01-30T14:13:02;23.30;;;12.90;;
34072;SDS011;20346;52.702;16.886;2024-01-30T14:15:48;23.40;;;14.60;;
34072;SDS011;20346;52.702;16.886;2024-01-30T14:18:35;27.70;;;14.90;;
34072;SDS011;20346;52.702;16.886;2024-01-30T14:21:21;26.90;;;14.80;;
34072;SDS011;20346;52.702;16.886;2024-01-30T14:24:07;30.90;;;15.80;;
34072;SDS011;20346;52.702;16.886;2024-01-30T14:26:53;28.40;;;16.60;;
34072;SDS011;20346;52.702;16.886;2024-01-30T14:29:40;31.70;;;16.60;;
34072;SDS011;20346;52.702;16.886;2024-01-30T14:32:28;28.90;;;16.30;;
34072;SDS011;20346;52.702;16.886;2024-01-30T14:38:01;29.80;;;15.80;;
34072;SDS011;20346;52.702;16.886;2024-01-30T14:46:20;26.90;;;13.60;;
34072;SDS011;20346;52.702;16.886;2024-01-30T14:49:07;25.30;;;14.90;;
34072;SDS011;20346;52.702;16.886;2024-01-30T14:51:53;29.60;;;14.70;;
34072;SDS011;20346;52.702;16.886;2024-01-30T14:54:39;27.60;;;15.80;;
34072;SDS011;20346;52.702;16.886;2024-01-30T14:57:25;30.00;;;14.70;;
34072;SDS011;20346;52.702;16.886;2024-01-30T15:00:11;28.50;;;14.70;;
34072;SDS011;20346;52.702;16.886;2024-01-30T15:02:58;29.50;;;15.00;;
34072;SDS011;20346;52.702;16.886;2024-01-30T15:05:44;24.50;;;14.50;;
34072;SDS011;20346;52.702;16.886;2024-01-30T15:08:30;27.30;;;15.90;;
34072;SDS011;20346;52.702;16.886;2024-01-30T15:11:17;27.60;;;14.80;;
34072;SDS011;20346;52.702;16.886;2024-01-30T15:14:03;25.90;;;15.20;;
34072;SDS011;20346;52.702;16.886;2024-01-30T15:16:49;28.20;;;15.10;;
34072;SDS011;20346;52.702;16.886;2024-01-30T15:19:35;34.80;;;14.80;;
34072;SDS011;20346;52.702;16.886;2024-01-30T15:22:21;23.70;;;15.40;;
34072;SDS011;20346;52.702;16.886;2024-01-30T15:25:08;28.80;;;15.40;;
34072;SDS011;20346;52.702;16.886;2024-01-30T15:27:54;31.10;;;16.50;;
34072;SDS011;20346;52.702;16.886;2024-01-30T15:30:40;31.40;;;16.80;;
34072;SDS011;20346;52.702;16.886;2024-01-30T15:33:29;29.00;;;17.80;;
34072;SDS011;20346;52.702;16.886;2024-01-30T15:36:16;33.50;;;16.20;;
34072;SDS011;20346;52.702;16.886;2024-01-30T15:39:02;33.70;;;16.90;;
34072;SDS011;20346;52.702;16.886;2024-01-30T15:41:48;34.10;;;16.80;;
34072;SDS011;20346;52.702;16.886;2024-01-30T15:44:34;29.80;;;16.30;;
34072;SDS011;20346;52.702;16.886;2024-01-30T15:47:20;30.20;;;16.60;;
34072;SDS011;20346;52.702;16.886;2024-01-30T15:50:06;31.40;;;16.60;;
34072;SDS011;20346;52.702;16.886;2024-01-30T15:52:55;25.20;;;15.90;;
34072;SDS011;20346;52.702;16.886;2024-01-30T15:55:41;26.10;;;15.30;;
34072;SDS011;20346;52.702;16.886;2024-01-30T15:58:27;27.10;;;15.40;;
34072;SDS011;20346;52.702;16.886;2024-01-30T16:01:13;35.90;;;16.10;;
34072;SDS011;20346;52.702;16.886;2024-01-30T16:04:00;24.20;;;14.50;;
34072;SDS011;20346;52.702;16.886;2024-01-30T16:06:46;28.40;;;15.00;;
34072;SDS011;20346;52.702;16.886;2024-01-30T16:09:32;29.70;;;15.30;;
34072;SDS011;20346;52.702;16.886;2024-01-30T16:12:18;27.10;;;15.90;;
34072;SDS011;20346;52.702;16.886;2024-01-30T16:15:04;36.70;;;16.90;;
34072;SDS011;20346;52.702;16.886;2024-01-30T16:17:50;26.70;;;17.00;;
34072;SDS011;20346;52.702;16.886;2024-01-30T16:20:36;30.50;;;15.80;;
34072;SDS011;20346;52.702;16.886;2024-01-30T16:23:23;25.80;;;15.40;;
34072;SDS011;20346;52.702;16.886;2024-01-30T16:26:09;27.80;;;15.80;;
34072;SDS011;20346;52.702;16.886;2024-01-30T16:28:55;24.10;;;14.20;;
34072;SDS011;20346;52.702;16.886;2024-01-30T16:31:41;30.80;;;16.50;;
34072;SDS011;20346;52.702;16.886;2024-01-30T16:34:27;30.50;;;17.00;;
34072;SDS011;20346;52.702;16.886;2024-01-30T16:37:13;34.60;;;17.40;;
34072;SDS011;20346;52.702;16.886;2024-01-30T16:40:00;37.10;;;17.80;;
34072;SDS011;20346;52.702;16.886;2024-01-30T16:42:45;34.60;;;17.80;;
34072;SDS011;20346;52.702;16.886;2024-01-30T16:45:31;38.40;;;19.20;;
34072;SDS011;20346;52.702;16.886;2024-01-30T16:48:17;35.80;;;18.40;;
34072;SDS011;20346;52.702;16.886;2024-01-30T16:51:05;34.30;;;18.70;;
34072;SDS011;20346;52.702;16.886;2024-01-30T16:53:51;33.60;;;17.30;;
34072;SDS011;20346;52.702;16.886;2024-01-30T16:56:37;31.10;;;17.60;;
34072;SDS011;20346;52.702;16.886;2024-01-30T16:59:23;26.60;;;15.90;;
34072;SDS011;20346;52.702;16.886;2024-01-30T17:02:09;31.90;;;16.90;;
34072;SDS011;20346;52.702;16.886;2024-01-30T17:04:56;31.60;;;15.70;;
34072;SDS011;20346;52.702;16.886;2024-01-30T17:07:44;28.90;;;15.50;;
34072;SDS011;20346;52.702;16.886;2024-01-30T17:10:30;31.30;;;16.40;;
34072;SDS011;20346;52.702;16.886;2024-01-30T17:13:18;29.00;;;15.30;;
34072;SDS011;20346;52.702;16.886;2024-01-30T17:16:04;28.10;;;15.90;;
34072;SDS011;20346;52.702;16.886;2024-01-30T17:18:50;31.10;;;17.30;;
34072;SDS011;20346;52.702;16.886;2024-01-30T17:21:37;33.70;;;17.30;;
34072;SDS011;20346;52.702;16.886;2024-01-30T17:24:23;33.10;;;17.20;;
34072;SDS011;20346;52.702;16.886;2024-01-30T17:29:59;34.00;;;16.70;;
34072;SDS011;20346;52.702;16.886;2024-01-30T17:32:45;31.20;;;15.90;;
34072;SDS011;20346;52.702;16.886;2024-01-30T17:35:31;42.10;;;19.20;;
34072;SDS011;20346;52.702;16.886;2024-01-30T17:38:18;35.40;;;18.10;;
34072;SDS011;20346;52.702;16.886;2024-01-30T17:41:04;33.70;;;18.10;;
34072;SDS011;20346;52.702;16.886;2024-01-30T17:43:50;36.90;;;18.80;;
34072;SDS011;20346;52.702;16.886;2024-01-30T17:46:36;32.70;;;18.30;;
34072;SDS011;20346;52.702;16.886;2024-01-30T17:49:23;39.40;;;18.60;;
34072;SDS011;20346;52.702;16.886;2024-01-30T17:52:11;32.30;;;18.10;;
34072;SDS011;20346;52.702;16.886;2024-01-30T17:54:57;37.30;;;18.90;;
34072;SDS011;20346;52.702;16.886;2024-01-30T18:00:33;33.70;;;18.00;;
34072;SDS011;20346;52.702;16.886;2024-01-30T18:03:25;34.70;;;18.00;;
34072;SDS011;20346;52.702;16.886;2024-01-30T18:06:14;41.10;;;19.10;;
34072;SDS011;20346;52.702;16.886;2024-01-30T18:11:47;39.40;;;18.80;;